Time;durP1;ratioP1;P1;durP2;ratioP2;P2;SDS_P1;SDS_P2;PMS_P1;PMS_P2;Temp;Humidity;BMP_temperature;BMP_pressure;BME280_temperature;BME280_humidity;BME280_pressure;Samples;Min_cycle;Max_cycle;Signal;HPM_P1;HPM_P2
2022/03/12 00:01:38;;;;;;;5.90;4.55;;;7.60;76.10;;;;;;5080523;28;20102;-50
2022/03/12 00:04:06;;;;;;;5.75;4.25;;;7.60;76.00;;;;;;5089867;28;20442;-52
2022/03/12 00:06:34;;;;;;;8.35;4.53;;;7.60;76.20;;;;;;5077402;28;20040;-53
2022/03/12 00:09:03;;;;;;;5.72;3.63;;;7.60;76.00;;;;;;5081693;28;20068;-52
2022/03/12 00:11:34;;;;;;;6.65;4.20;;;7.60;76.20;;;;;;5085367;28;20379;-53
2022/03/12 00:14:04;;;;;;;6.78;4.47;;;7.60;76.30;;;;;;5057268;28;20134;-51
2022/03/12 00:16:33;;;;;;;5.32;4.50;;;7.70;76.70;;;;;;5082204;28;20075;-52
2022/03/12 00:19:03;;;;;;;6.65;4.43;;;7.70;76.90;;;;;;5072650;28;20555;-51
2022/03/12 00:21:34;;;;;;;7.35;4.03;;;7.70;77.00;;;;;;5084953;28;20047;-50
2022/03/12 00:24:04;;;;;;;6.25;3.80;;;7.70;77.00;;;;;;5043196;28;20040;-51
2022/03/12 00:26:33;;;;;;;10.75;3.05;;;7.60;76.80;;;;;;5081896;28;20101;-53
2022/03/12 00:29:01;;;;;;;5.60;4.10;;;7.60;76.60;;;;;;5070119;28;20371;-50
2022/03/12 00:31:28;;;;;;;9.45;4.07;;;7.60;76.70;;;;;;5081108;28;20036;-51
2022/03/12 00:33:56;;;;;;;6.40;3.67;;;7.60;76.70;;;;;;5087346;28;20530;-51
2022/03/12 00:36:24;;;;;;;6.75;4.20;;;7.60;76.60;;;;;;5079504;28;20056;-49
2022/03/12 00:38:52;;;;;;;9.35;3.75;;;7.60;76.80;;;;;;5066476;28;20036;-51
2022/03/12 00:41:19;;;;;;;6.63;3.65;;;7.60;77.10;;;;;;5054724;28;20079;-50
2022/03/12 00:43:47;;;;;;;9.50;4.10;;;7.50;76.80;;;;;;5052276;28;20045;-51
2022/03/12 00:46:14;;;;;;;6.90;3.60;;;7.50;76.50;;;;;;5065440;28;20059;-54
2022/03/12 00:48:42;;;;;;;5.93;3.45;;;7.40;76.40;;;;;;5079558;28;20082;-50
2022/03/12 00:51:10;;;;;;;6.18;4.05;;;7.40;76.70;;;;;;5037785;28;20461;-49
2022/03/12 00:53:39;;;;;;;5.90;3.83;;;7.40;77.00;;;;;;5063371;28;20540;-52
2022/03/12 00:56:07;;;;;;;5.97;3.90;;;7.30;77.20;;;;;;5081067;28;20098;-49
2022/03/12 00:58:35;;;;;;;5.55;3.85;;;7.30;77.40;;;;;;5076485;28;20435;-50
2022/03/12 01:01:04;;;;;;;7.25;3.35;;;7.30;77.50;;;;;;5069104;28;20083;-53
2022/03/12 01:03:32;;;;;;;10.23;3.80;;;7.30;77.80;;;;;;5053674;28;20094;-49
2022/03/12 01:06:03;;;;;;;6.75;3.60;;;7.30;78.00;;;;;;5066451;28;20091;-51
2022/03/12 01:08:32;;;;;;;4.97;4.00;;;7.20;78.00;;;;;;5070308;28;20036;-51
2022/03/12 01:11:03;;;;;;;4.93;3.38;;;7.20;78.00;;;;;;5084079;28;20063;-53
2022/03/12 01:13:31;;;;;;;5.88;3.70;;;7.20;78.00;;;;;;5071902;28;20106;-55
2022/03/12 01:15:59;;;;;;;6.82;3.90;;;7.20;77.80;;;;;;5081129;28;20060;-53
2022/03/12 01:18:27;;;;;;;6.75;3.65;;;7.30;77.70;;;;;;5061246;28;20072;-50
2022/03/12 01:20:55;;;;;;;5.60;3.33;;;7.30;77.70;;;;;;5080371;28;20487;-51
2022/03/12 01:23:25;;;;;;;7.97;4.00;;;7.30;77.40;;;;;;5073140;28;20060;-50
2022/03/12 01:25:53;;;;;;;5.50;3.42;;;7.30;77.60;;;;;;5073259;28;20441;-52
2022/03/12 01:28:21;;;;;;;6.15;3.42;;;7.20;77.50;;;;;;5073205;28;20068;-49
2022/03/12 01:30:48;;;;;;;7.20;3.97;;;7.20;77.60;;;;;;5073125;28;20048;-53
2022/03/12 01:33:17;;;;;;;5.55;4.03;;;7.20;77.70;;;;;;5055172;28;20067;-51
2022/03/12 01:35:45;;;;;;;4.68;3.75;;;7.20;78.00;;;;;;5074947;28;20063;-50
2022/03/12 01:38:15;;;;;;;7.80;3.85;;;7.20;78.00;;;;;;5077121;28;20037;-50
2022/03/12 01:40:43;;;;;;;8.20;4.85;;;7.20;78.20;;;;;;5077105;28;20040;-51
2022/03/12 01:43:11;;;;;;;9.45;5.82;;;7.20;78.20;;;;;;5076732;28;20494;-50
2022/03/12 01:45:42;;;;;;;10.15;5.65;;;7.10;78.00;;;;;;5076956;28;20537;-51
2022/03/12 01:48:09;;;;;;;8.15;4.68;;;7.10;78.30;;;;;;5076775;28;20043;-51
2022/03/12 01:50:37;;;;;;;6.53;3.75;;;7.20;78.80;;;;;;5076697;28;20040;-51
2022/03/12 01:53:10;;;;;;;8.13;4.50;;;7.10;78.80;;;;;;5076558;28;20048;-50
2022/03/12 01:55:39;;;;;;;5.32;3.70;;;7.10;78.80;;;;;;5076710;28;20045;-52
2022/03/12 01:58:08;;;;;;;7.32;3.95;;;7.10;78.70;;;;;;5059120;28;20048;-50
2022/03/12 02:00:53;;;;;;;7.57;3.88;;;7.10;78.60;;;;;;5058553;28;20048;-52
2022/03/12 02:03:28;;;;;;;6.65;3.47;;;7.10;78.60;;;;;;5058905;28;20044;-51
2022/03/12 02:05:56;;;;;;;7.45;3.70;;;7.10;78.70;;;;;;5076599;28;20090;-51
2022/03/12 02:08:27;;;;;;;5.45;4.10;;;7.00;78.80;;;;;;5076453;28;20040;-50
2022/03/12 02:10:57;;;;;;;6.22;3.58;;;7.00;78.80;;;;;;5076461;28;20482;-50
2022/03/12 02:13:29;;;;;;;5.82;3.80;;;7.00;79.00;;;;;;5076149;28;20135;-51
2022/03/12 02:16:08;;;;;;;8.95;4.00;;;7.00;79.00;;;;;;5076459;28;20051;-49
2022/03/12 02:18:38;;;;;;;5.25;3.15;;;7.00;79.10;;;;;;5076310;28;20067;-49
2022/03/12 02:21:06;;;;;;;6.97;3.55;;;7.00;79.30;;;;;;5076155;28;20040;-52
2022/03/12 02:23:47;;;;;;;6.30;3.47;;;7.00;78.60;;;;;;5076068;28;20048;-50
2022/03/12 02:26:15;;;;;;;7.38;3.70;;;7.00;78.80;;;;;;5075954;28;20067;-50
2022/03/12 02:28:42;;;;;;;9.35;4.90;;;7.00;78.70;;;;;;5076007;28;20045;-52
2022/03/12 02:31:14;;;;;;;7.18;4.47;;;7.00;78.50;;;;;;5058049;28;20090;-49
2022/03/12 02:33:43;;;;;;;5.70;3.80;;;7.00;78.70;;;;;;5075939;28;20041;-50
2022/03/12 02:36:27;;;;;;;7.75;4.03;;;7.00;78.70;;;;;;5057826;28;20056;-50
2022/03/12 02:38:55;;;;;;;4.43;3.17;;;7.00;79.00;;;;;;5075864;28;20055;-50
2022/03/12 02:41:24;;;;;;;5.45;3.17;;;7.00;79.00;;;;;;5075783;28;20072;-52
2022/03/12 02:43:51;;;;;;;4.25;3.13;;;7.00;78.80;;;;;;5075566;28;20052;-49
2022/03/12 02:46:19;;;;;;;6.00;3.63;;;7.00;79.00;;;;;;5075849;28;20490;-50
2022/03/12 02:48:52;;;;;;;6.47;4.40;;;7.00;79.00;;;;;;5074693;28;20084;-50
2022/03/12 02:51:21;;;;;;;6.65;3.75;;;7.00;78.90;;;;;;5075197;28;20068;-50
2022/03/12 02:53:56;;;;;;;7.80;3.38;;;7.00;79.10;;;;;;5075268;28;20464;-49
2022/03/12 02:56:24;;;;;;;5.75;3.08;;;7.00;79.10;;;;;;5075639;28;20040;-53
2022/03/12 02:58:52;;;;;;;6.78;3.80;;;7.00;79.20;;;;;;5057616;28;20072;-51
2022/03/12 03:01:20;;;;;;;7.20;3.42;;;7.00;79.30;;;;;;5057560;28;20442;-50
2022/03/12 03:03:48;;;;;;;5.15;3.25;;;7.10;79.30;;;;;;5075187;28;20071;-53
2022/03/12 03:06:16;;;;;;;4.68;3.45;;;7.00;79.10;;;;;;5057685;28;20040;-50
2022/03/12 03:08:46;;;;;;;5.53;3.17;;;7.00;79.20;;;;;;5075282;28;20458;-50
2022/03/12 03:11:16;;;;;;;7.93;4.00;;;7.00;79.50;;;;;;5075367;28;20087;-49
2022/03/12 03:13:45;;;;;;;6.07;3.88;;;7.00;79.90;;;;;;5075178;28;20514;-50
2022/03/12 03:16:19;;;;;;;5.22;3.47;;;7.00;80.30;;;;;;5075033;28;20127;-53
2022/03/12 03:18:52;;;;;;;6.38;3.58;;;6.90;80.10;;;;;;5057632;28;20133;-50
2022/03/12 03:21:24;;;;;;;5.95;3.60;;;6.90;80.50;;;;;;5075075;28;20052;-52
2022/03/12 03:23:53;;;;;;;6.00;3.45;;;6.90;80.50;;;;;;5075135;28;20047;-51
2022/03/12 03:26:48;;;;;;;6.82;4.00;;;6.80;80.50;;;;;;5074887;28;20049;-53
2022/03/12 03:29:16;;;;;;;7.70;4.00;;;6.80;80.70;;;;;;5074789;28;20211;-50
2022/03/12 03:31:44;;;;;;;5.93;4.10;;;6.80;80.90;;;;;;5074714;28;20107;-50
2022/03/12 03:34:13;;;;;;;4.68;3.42;;;6.80;81.10;;;;;;5074753;28;20044;-49
2022/03/12 03:36:41;;;;;;;6.43;4.53;;;6.80;81.20;;;;;;5074741;28;20045;-52
2022/03/12 03:39:09;;;;;;;7.32;3.55;;;6.70;80.90;;;;;;5074566;28;20380;-49
2022/03/12 03:41:37;;;;;;;5.15;3.05;;;6.70;80.90;;;;;;5074505;28;20036;-49
2022/03/12 03:44:05;;;;;;;6.45;3.80;;;6.70;81.00;;;;;;5057088;28;20490;-53
2022/03/12 03:46:33;;;;;;;6.43;3.90;;;6.70;81.20;;;;;;5074499;28;20379;-49
2022/03/12 03:49:02;;;;;;;6.78;4.57;;;6.70;81.20;;;;;;5056793;28;20127;-50
2022/03/12 03:51:32;;;;;;;7.85;3.90;;;6.70;81.30;;;;;;5057012;28;20053;-53
2022/03/12 03:54:01;;;;;;;4.97;3.40;;;6.70;81.30;;;;;;5074495;28;20560;-51
2022/03/12 03:56:28;;;;;;;7.22;2.97;;;6.60;81.10;;;;;;5056523;28;20040;-50
2022/03/12 03:58:56;;;;;;;5.07;3.50;;;6.60;81.00;;;;;;5056115;28;20044;-50
2022/03/12 04:01:23;;;;;;;5.07;3.00;;;6.60;81.10;;;;;;5074448;28;20390;-49
2022/03/12 04:03:52;;;;;;;6.00;3.33;;;6.60;81.20;;;;;;5056418;28;20483;-50
2022/03/12 04:06:21;;;;;;;4.85;4.07;;;6.50;81.30;;;;;;5074109;28;20079;-51
2022/03/12 04:08:50;;;;;;;8.27;3.40;;;6.50;81.20;;;;;;5074272;28;20064;-54
2022/03/12 04:11:23;;;;;;;4.65;3.03;;;6.50;81.20;;;;;;5074174;28;20090;-53
2022/03/12 04:13:52;;;;;;;8.35;3.67;;;6.50;81.30;;;;;;5074040;28;20091;-51
2022/03/12 04:16:20;;;;;;;9.68;4.25;;;6.50;81.20;;;;;;5073965;28;20047;-50
2022/03/12 04:18:49;;;;;;;7.35;3.28;;;6.50;81.20;;;;;;5073838;28;20049;-50
2022/03/12 04:21:19;;;;;;;5.78;3.33;;;6.50;81.10;;;;;;5073874;28;20040;-49
2022/03/12 04:23:49;;;;;;;5.95;3.95;;;6.40;81.00;;;;;;5074261;28;20040;-53
2022/03/12 04:26:17;;;;;;;7.72;4.10;;;6.50;80.90;;;;;;5073616;28;20040;-50
2022/03/12 04:28:45;;;;;;;5.28;3.20;;;6.50;80.80;;;;;;5073602;28;20047;-52
2022/03/12 04:31:13;;;;;;;5.85;3.42;;;6.50;80.70;;;;;;5073712;28;20045;-53
2022/03/12 04:33:41;;;;;;;7.38;3.63;;;6.50;80.90;;;;;;5073724;28;20044;-51
2022/03/12 04:36:12;;;;;;;6.43;4.30;;;6.50;80.80;;;;;;5073662;28;20123;-53
2022/03/12 04:38:40;;;;;;;6.72;3.67;;;6.50;80.70;;;;;;5073696;28;20469;-53
2022/03/12 04:41:09;;;;;;;4.10;2.85;;;6.50;80.70;;;;;;5073796;28;20048;-53
2022/03/12 04:43:38;;;;;;;6.10;3.30;;;6.50;80.80;;;;;;5073667;28;20051;-50
2022/03/12 04:46:05;;;;;;;5.00;3.13;;;6.50;80.90;;;;;;5073540;28;20048;-53
2022/03/12 04:48:33;;;;;;;10.25;3.78;;;6.50;80.70;;;;;;5073573;28;20041;-51
2022/03/12 04:51:01;;;;;;;6.53;3.70;;;6.50;80.80;;;;;;5073610;28;20040;-51
2022/03/12 04:53:28;;;;;;;6.53;3.60;;;6.50;81.10;;;;;;5073584;28;20082;-53
2022/03/12 04:55:56;;;;;;;6.82;4.47;;;6.40;81.00;;;;;;5055754;28;20043;-50
2022/03/12 04:58:24;;;;;;;7.00;4.18;;;6.40;81.20;;;;;;5073450;28;20049;-51
2022/03/12 05:00:51;;;;;;;7.93;4.30;;;6.40;81.30;;;;;;5073154;28;20059;-51
2022/03/12 05:03:22;;;;;;;5.53;3.53;;;6.40;81.20;;;;;;5073910;28;20040;-51
2022/03/12 05:05:52;;;;;;;5.22;3.30;;;6.40;81.10;;;;;;5055611;28;20068;-51
2022/03/12 05:08:25;;;;;;;4.57;3.63;;;6.40;81.00;;;;;;5073703;28;20041;-52
2022/03/12 05:10:55;;;;;;;5.88;4.18;;;6.40;80.90;;;;;;5075094;28;20072;-49
2022/03/12 05:13:27;;;;;;;9.98;4.10;;;6.40;81.00;;;;;;5077375;28;20132;-50
2022/03/12 05:15:58;;;;;;;6.03;3.22;;;6.40;81.30;;;;;;5077364;28;20036;-52
2022/03/12 05:18:26;;;;;;;6.30;3.60;;;6.50;81.40;;;;;;5077279;28;20090;-51
2022/03/12 05:20:54;;;;;;;5.75;3.60;;;6.50;81.40;;;;;;5077715;28;20426;-52
2022/03/12 05:23:26;;;;;;;7.03;3.67;;;6.50;81.60;;;;;;5077347;28;20063;-53
2022/03/12 05:25:54;;;;;;;6.60;3.53;;;6.60;81.40;;;;;;5059393;28;20041;-50
2022/03/12 05:28:26;;;;;;;7.82;3.92;;;6.70;81.40;;;;;;5077248;28;20045;-52
2022/03/12 05:31:04;;;;;;;11.43;3.95;;;6.90;81.40;;;;;;5060409;28;20037;-50
2022/03/12 05:33:33;;;;;;;7.20;4.53;;;7.00;81.10;;;;;;5076740;28;20048;-55
2022/03/12 05:36:02;;;;;;;6.05;3.75;;;7.20;80.90;;;;;;5076886;28;20044;-52
2022/03/12 05:38:35;;;;;;;8.98;3.88;;;7.30;80.50;;;;;;5058996;28;20040;-51
2022/03/12 05:41:11;;;;;;;4.95;3.35;;;7.50;80.30;;;;;;5077224;28;20131;-51
2022/03/12 05:43:46;;;;;;;6.68;4.38;;;7.60;79.80;;;;;;5077091;28;20051;-51
2022/03/12 05:46:15;;;;;;;7.63;3.33;;;7.70;79.80;;;;;;5076914;28;20040;-51
2022/03/12 05:48:45;;;;;;;5.13;3.47;;;7.80;79.60;;;;;;5076729;28;20073;-52
2022/03/12 05:51:14;;;;;;;6.70;3.95;;;7.70;79.70;;;;;;5076687;28;20048;-53
2022/03/12 05:53:43;;;;;;;7.13;3.53;;;7.80;80.00;;;;;;5059101;28;20040;-50
2022/03/12 05:56:12;;;;;;;8.05;3.92;;;7.90;80.00;;;;;;5076687;28;20131;-52
2022/03/12 05:58:40;;;;;;;6.90;5.03;;;8.10;79.70;;;;;;5076537;28;20125;-54
2022/03/12 06:01:08;;;;;;;8.23;4.40;;;8.30;79.30;;;;;;5076459;28;20041;-51
2022/03/12 06:03:36;;;;;;;5.93;3.88;;;8.50;78.90;;;;;;5076299;28;20049;-50
2022/03/12 06:06:04;;;;;;;7.03;4.10;;;8.70;78.60;;;;;;5076507;28;20498;-50
2022/03/12 06:08:33;;;;;;;6.05;3.70;;;8.90;78.10;;;;;;5076575;28;20043;-50
2022/03/12 06:11:01;;;;;;;5.95;4.13;;;9.00;78.00;;;;;;5076385;28;20036;-50
2022/03/12 06:13:30;;;;;;;9.48;4.70;;;9.20;77.90;;;;;;5058856;28;20372;-50
2022/03/12 06:15:58;;;;;;;7.55;5.28;;;9.30;77.50;;;;;;5076154;28;20044;-49
2022/03/12 06:18:37;;;;;;;8.80;4.80;;;9.50;77.20;;;;;;5076255;28;20086;-49
2022/03/12 06:21:06;;;;;;;11.50;6.65;;;9.70;76.80;;;;;;5075905;28;20056;-50
2022/03/12 06:23:36;;;;;;;8.85;5.55;;;9.80;76.40;;;;;;5076258;28;20197;-50
2022/03/12 06:26:15;;;;;;;7.80;4.82;;;10.00;76.10;;;;;;5058359;28;20047;-51
2022/03/12 06:28:43;;;;;;;13.57;6.47;;;10.10;75.90;;;;;;5058311;28;20045;-51
2022/03/12 06:31:15;;;;;;;10.20;6.13;;;10.30;76.00;;;;;;5075772;28;20090;-49
2022/03/12 06:33:43;;;;;;;9.63;5.45;;;10.40;75.70;;;;;;5075887;28;20127;-55
2022/03/12 06:36:12;;;;;;;8.23;5.35;;;10.60;75.60;;;;;;5075599;28;20072;-52
2022/03/12 06:38:40;;;;;;;7.53;4.32;;;10.70;75.30;;;;;;5057623;28;20044;-50
2022/03/12 06:41:07;;;;;;;8.30;5.03;;;10.90;75.00;;;;;;5057888;28;20049;-51
2022/03/12 06:43:42;;;;;;;6.80;4.65;;;11.00;74.80;;;;;;5075693;28;20090;-50
2022/03/12 06:46:15;;;;;;;8.15;5.57;;;11.20;74.50;;;;;;5075942;28;20044;-51
2022/03/12 06:48:43;;;;;;;8.10;4.72;;;11.40;74.40;;;;;;5075686;28;20043;-51
2022/03/12 06:51:11;;;;;;;8.27;5.30;;;11.60;74.20;;;;;;5057766;28;20043;-50
2022/03/12 06:53:39;;;;;;;8.35;5.18;;;11.80;73.70;;;;;;5075764;28;20051;-50
2022/03/12 06:56:07;;;;;;;11.73;7.07;;;12.00;73.40;;;;;;5075423;28;20471;-51
2022/03/12 06:58:35;;;;;;;8.98;6.50;;;12.20;73.30;;;;;;5057889;28;20076;-51
2022/03/12 07:01:03;;;;;;;11.52;6.88;;;12.20;73.10;;;;;;5057124;28;20502;-50
2022/03/12 07:03:30;;;;;;;10.90;7.00;;;12.30;72.90;;;;;;5024573;28;20135;-51
2022/03/12 07:05:58;;;;;;;8.18;5.50;;;12.40;72.90;;;;;;5075353;28;20041;-49
2022/03/12 07:08:25;;;;;;;5.80;4.15;;;12.50;71.70;;;;;;5075206;28;20040;-53
2022/03/12 07:10:53;;;;;;;5.35;3.70;;;12.50;70.50;;;;;;5075131;28;20047;-55
2022/03/12 07:13:21;;;;;;;6.07;3.75;;;12.60;70.10;;;;;;5075317;28;20045;-51
2022/03/12 07:15:50;;;;;;;5.60;4.10;;;12.60;69.50;;;;;;5074853;28;20051;-51
2022/03/12 07:18:17;;;;;;;6.10;3.85;;;12.70;69.20;;;;;;5057479;28;20115;-51
2022/03/12 07:20:45;;;;;;;4.80;3.17;;;12.70;69.10;;;;;;5075357;28;20047;-53
2022/03/12 07:23:12;;;;;;;6.00;3.60;;;12.60;68.90;;;;;;5074918;28;20456;-54
2022/03/12 07:25:40;;;;;;;6.70;3.95;;;12.60;69.10;;;;;;5074615;28;20380;-49
2022/03/12 07:28:10;;;;;;;7.55;4.20;;;12.60;68.90;;;;;;5075244;28;20090;-54
2022/03/12 07:30:37;;;;;;;5.70;3.90;;;12.60;69.00;;;;;;5057708;28;20072;-49
2022/03/12 07:33:05;;;;;;;6.03;3.35;;;12.60;68.80;;;;;;5056302;28;20048;-54
2022/03/12 07:35:32;;;;;;;5.95;4.60;;;12.60;68.10;;;;;;5056743;28;20098;-49
2022/03/12 07:38:00;;;;;;;6.95;3.75;;;12.60;68.80;;;;;;5074582;28;20072;-51
2022/03/12 07:40:28;;;;;;;5.30;3.63;;;12.70;68.50;;;;;;5056813;28;20669;-51
2022/03/12 07:42:55;;;;;;;4.65;3.40;;;12.60;68.10;;;;;;5057145;28;20127;-50
2022/03/12 07:45:25;;;;;;;5.78;4.18;;;12.70;68.40;;;;;;5074895;28;20037;-51
2022/03/12 07:47:53;;;;;;;7.45;3.50;;;12.70;68.00;;;;;;5074383;28;20043;-49
2022/03/12 07:50:21;;;;;;;7.97;4.15;;;12.70;67.70;;;;;;5074420;28;20090;-52
2022/03/12 07:52:50;;;;;;;7.38;4.00;;;12.60;67.80;;;;;;5074352;28;20118;-49
2022/03/12 07:55:18;;;;;;;6.07;4.63;;;12.60;68.10;;;;;;5074308;28;20077;-49
2022/03/12 07:57:45;;;;;;;7.35;4.22;;;12.60;68.60;;;;;;5074299;28;20036;-50
2022/03/12 08:00:14;;;;;;;8.73;5.40;;;12.60;68.80;;;;;;5074320;28;20048;-51
2022/03/12 08:02:44;;;;;;;8.77;6.47;;;12.40;68.80;;;;;;5074235;28;20048;-52
2022/03/12 08:05:13;;;;;;;14.25;8.73;;;12.50;69.00;;;;;;5056346;28;20098;-51
2022/03/12 08:07:40;;;;;;;10.30;6.43;;;12.40;69.10;;;;;;5039977;28;20041;-49
2022/03/12 08:10:09;;;;;;;7.70;4.55;;;12.30;68.60;;;;;;5040029;28;20036;-50
2022/03/12 08:12:37;;;;;;;4.95;3.70;;;12.40;69.20;;;;;;5056391;28;20032;-49
2022/03/12 08:15:08;;;;;;;5.80;3.75;;;12.10;68.40;;;;;;5073835;28;20064;-49
2022/03/12 08:17:37;;;;;;;5.95;4.18;;;12.20;68.60;;;;;;5073947;28;20494;-50
2022/03/12 08:20:06;;;;;;;6.38;4.15;;;12.30;68.10;;;;;;5056151;28;20105;-50
2022/03/12 08:22:36;;;;;;;9.23;3.95;;;12.50;68.30;;;;;;5074329;28;20032;-52
2022/03/12 08:25:04;;;;;;;7.00;4.47;;;12.40;67.60;;;;;;5073845;28;20139;-50
2022/03/12 08:27:32;;;;;;;8.77;4.63;;;12.30;67.90;;;;;;5073830;28;20049;-50
2022/03/12 08:30:00;;;;;;;4.85;3.83;;;12.40;67.40;;;;;;5055897;28;20147;-50
2022/03/12 08:32:28;;;;;;;5.18;3.75;;;12.30;67.50;;;;;;5056002;28;20388;-50
2022/03/12 08:34:57;;;;;;;5.80;3.90;;;12.40;67.90;;;;;;5056312;28;20036;-50
2022/03/12 08:37:26;;;;;;;6.20;4.00;;;12.50;67.10;;;;;;5065993;28;20037;-52
2022/03/12 08:39:54;;;;;;;6.18;3.92;;;12.70;67.60;;;;;;5049836;28;20048;-50
2022/03/12 08:42:24;;;;;;;5.88;3.90;;;13.00;66.90;;;;;;5082032;28;20044;-51
2022/03/12 08:44:52;;;;;;;5.00;3.60;;;13.00;66.00;;;;;;5075369;28;20059;-53
2022/03/12 08:47:20;;;;;;;4.15;3.53;;;12.60;67.00;;;;;;5061261;28;20063;-50
2022/03/12 08:49:48;;;;;;;6.10;4.15;;;12.30;66.70;;;;;;5071854;28;20056;-54
2022/03/12 08:52:16;;;;;;;6.05;4.45;;;12.20;66.50;;;;;;5084258;28;20033;-50
2022/03/12 08:54:44;;;;;;;5.35;3.60;;;12.20;66.60;;;;;;5074242;28;20040;-51
2022/03/12 08:57:11;;;;;;;5.88;3.72;;;12.20;66.50;;;;;;5055731;28;20040;-51
2022/03/12 08:59:39;;;;;;;5.10;3.95;;;12.10;67.40;;;;;;5073501;28;20040;-50
2022/03/12 09:02:08;;;;;;;10.23;3.97;;;12.10;68.20;;;;;;5073461;28;20547;-50
2022/03/12 09:04:36;;;;;;;8.05;3.97;;;12.20;68.50;;;;;;5073582;28;20045;-50
2022/03/12 09:07:04;;;;;;;5.38;3.60;;;12.40;67.20;;;;;;5055841;28;20049;-53
2022/03/12 09:09:32;;;;;;;6.90;3.40;;;12.60;66.90;;;;;;5055556;28;20052;-49
2022/03/12 09:12:00;;;;;;;7.90;4.07;;;12.60;66.30;;;;;;5055466;28;20440;-50
2022/03/12 09:14:28;;;;;;;6.40;3.40;;;12.60;66.70;;;;;;5073178;28;20452;-50
2022/03/12 09:16:56;;;;;;;4.63;3.30;;;12.40;66.90;;;;;;5055767;28;20056;-52
2022/03/12 09:19:24;;;;;;;7.05;4.43;;;12.50;67.40;;;;;;5073504;28;20098;-49
2022/03/12 09:21:51;;;;;;;9.55;4.65;;;12.40;67.30;;;;;;5068549;28;20040;-53
2022/03/12 09:24:19;;;;;;;7.85;4.53;;;12.50;67.40;;;;;;5065017;28;20494;-51
2022/03/12 09:26:50;;;;;;;6.35;3.83;;;12.50;67.10;;;;;;5076801;28;20047;-53
2022/03/12 09:29:17;;;;;;;4.30;3.45;;;12.60;66.80;;;;;;5055785;28;20045;-49
2022/03/12 09:31:45;;;;;;;5.80;4.80;;;12.60;67.10;;;;;;5073089;28;20076;-50
2022/03/12 09:34:12;;;;;;;8.80;5.10;;;12.70;67.80;;;;;;5055194;28;20490;-50
2022/03/12 09:36:40;;;;;;;9.50;6.57;;;12.80;67.30;;;;;;5073172;28;20047;-49
2022/03/12 09:39:08;;;;;;;7.13;4.40;;;12.70;66.10;;;;;;5073124;28;20099;-50
2022/03/12 09:41:38;;;;;;;6.22;3.70;;;12.80;65.90;;;;;;5073080;28;20105;-49
2022/03/12 09:44:07;;;;;;;5.90;3.58;;;12.70;65.80;;;;;;5055631;28;20036;-50
2022/03/12 09:46:35;;;;;;;5.45;3.70;;;12.80;65.80;;;;;;5038625;28;20394;-49
2022/03/12 09:49:04;;;;;;;7.53;4.22;;;12.80;65.70;;;;;;5073170;28;20136;-49
2022/03/12 09:51:32;;;;;;;6.10;3.67;;;13.00;65.20;;;;;;5072894;28;20494;-51
2022/03/12 09:53:59;;;;;;;6.80;4.00;;;13.20;65.30;;;;;;5054974;28;20141;-48
2022/03/12 09:56:27;;;;;;;5.63;3.65;;;13.00;64.90;;;;;;5073852;28;20036;-50
2022/03/12 09:58:54;;;;;;;7.18;3.53;;;12.90;64.20;;;;;;5076774;28;20066;-49
2022/03/12 10:01:22;;;;;;;7.97;3.45;;;13.00;64.20;;;;;;5058642;28;20048;-50
2022/03/12 10:03:50;;;;;;;8.30;3.90;;;13.20;64.10;;;;;;5058824;28;20083;-50
2022/03/12 10:06:17;;;;;;;5.50;3.65;;;13.30;64.90;;;;;;5076459;28;20040;-49
2022/03/12 10:08:46;;;;;;;5.32;3.72;;;13.40;64.90;;;;;;5076124;28;20071;-52
2022/03/12 10:11:13;;;;;;;7.07;3.95;;;13.30;64.40;;;;;;5075414;28;20040;-50
2022/03/12 10:13:43;;;;;;;7.60;4.15;;;13.20;64.80;;;;;;5076276;28;20044;-50
2022/03/12 10:16:15;;;;;;;8.95;4.28;;;13.20;65.30;;;;;;5076311;28;20032;-49
2022/03/12 10:18:45;;;;;;;6.38;4.00;;;13.20;64.10;;;;;;5058341;28;20071;-49
2022/03/12 10:21:14;;;;;;;6.85;4.30;;;12.90;64.10;;;;;;5057570;28;20040;-49
2022/03/12 10:23:42;;;;;;;5.70;3.63;;;12.90;64.80;;;;;;5058066;28;20110;-49
2022/03/12 10:26:10;;;;;;;4.85;2.88;;;13.00;65.60;;;;;;5075801;28;20091;-50
2022/03/12 10:28:37;;;;;;;6.10;4.03;;;13.20;65.30;;;;;;5074937;28;20040;-51
2022/03/12 10:31:09;;;;;;;6.75;3.42;;;13.20;65.70;;;;;;5075824;28;20056;-51
2022/03/12 10:33:36;;;;;;;6.47;4.50;;;12.90;64.50;;;;;;5075976;28;20044;-49
2022/03/12 10:36:22;;;;;;;5.65;4.10;;;12.80;66.30;;;;;;5075252;28;20086;-50
2022/03/12 10:38:50;;;;;;;5.30;3.38;;;12.80;63.40;;;;;;5076006;28;20036;-50
2022/03/12 10:41:18;;;;;;;9.07;5.28;;;12.80;63.80;;;;;;5057516;28;20554;-49
2022/03/12 10:43:54;;;;;;;5.55;4.07;;;12.90;63.50;;;;;;5057879;28;20076;-50
2022/03/12 10:46:27;;;;;;;6.70;4.68;;;13.10;63.50;;;;;;5058077;28;20071;-49
2022/03/12 10:48:57;;;;;;;6.13;3.90;;;13.10;64.50;;;;;;5075604;28;20040;-49
2022/03/12 10:51:29;;;;;;;5.80;3.92;;;13.00;64.50;;;;;;5075780;28;20439;-51
2022/03/12 10:54:05;;;;;;;5.55;3.90;;;12.80;64.50;;;;;;5041453;28;20127;-50
2022/03/12 10:56:48;;;;;;;7.93;4.18;;;12.70;64.10;;;;;;5074562;28;20044;-49
2022/03/12 10:59:19;;;;;;;5.75;3.72;;;12.90;65.00;;;;;;5056359;28;20660;-50
2022/03/12 11:01:54;;;;;;;8.73;3.78;;;12.90;64.40;;;;;;5075197;28;20186;-50
2022/03/12 11:04:24;;;;;;;7.00;3.72;;;12.80;64.00;;;;;;5075490;28;20044;-50
2022/03/12 11:06:54;;;;;;;7.35;4.60;;;12.70;63.70;;;;;;5075940;28;20384;-49
2022/03/12 11:09:37;;;;;;;10.13;6.57;;;12.40;64.30;;;;;;5057617;28;20110;-50
2022/03/12 11:12:43;;;;;;;7.97;4.78;;;12.40;64.70;;;;;;5075225;28;20047;-49
2022/03/12 11:15:15;;;;;;;5.60;3.60;;;12.60;64.10;;;;;;5075181;28;20049;-49
2022/03/12 11:17:48;;;;;;;7.50;4.80;;;12.50;64.50;;;;;;5075167;28;20040;-49
2022/03/12 11:20:36;;;;;;;5.13;3.60;;;12.60;65.00;;;;;;5075151;28;20492;-49
2022/03/12 11:23:16;;;;;;;7.05;4.13;;;12.60;64.90;;;;;;5075442;28;20044;-50
2022/03/12 11:25:56;;;;;;;7.60;3.40;;;12.30;64.50;;;;;;5074937;28;20090;-50
2022/03/12 11:28:24;;;;;;;5.70;3.88;;;12.30;64.20;;;;;;5074911;28;20066;-50
2022/03/12 11:30:56;;;;;;;6.43;4.13;;;12.40;64.80;;;;;;5075015;28;20499;-50
2022/03/12 11:33:26;;;;;;;6.10;3.55;;;12.50;64.80;;;;;;5057301;28;20041;-49
2022/03/12 11:35:59;;;;;;;8.07;4.70;;;12.60;64.10;;;;;;5074940;28;20048;-50
2022/03/12 11:38:32;;;;;;;7.95;4.10;;;12.70;64.00;;;;;;5074509;28;20498;-51
2022/03/12 11:41:09;;;;;;;5.85;5.07;;;12.40;64.00;;;;;;5073957;28;20086;-50
2022/03/12 11:43:38;;;;;;;;;;;12.30;63.20;;;;;;5058458;28;20490;-52
2022/03/12 11:46:08;;;;;;;9.30;4.78;;;12.30;63.30;;;;;;5056939;28;20366;-50
2022/03/12 11:48:38;;;;;;;6.65;4.07;;;12.40;64.00;;;;;;5074559;28;20384;-50
2022/03/12 11:51:23;;;;;;;6.07;4.22;;;12.40;64.60;;;;;;5074690;28;20051;-50
2022/03/12 11:53:55;;;;;;;7.43;3.95;;;12.60;65.30;;;;;;5074542;28;20484;-49
2022/03/12 11:56:25;;;;;;;6.97;4.75;;;12.70;65.40;;;;;;5074582;28;20036;-49
2022/03/12 11:58:53;;;;;;;9.32;4.50;;;12.80;64.60;;;;;;5074592;28;20123;-49
2022/03/12 12:01:22;;;;;;;6.72;4.32;;;12.90;64.60;;;;;;5053117;28;20060;-49
2022/03/12 12:03:53;;;;;;;6.40;3.53;;;12.70;64.10;;;;;;5053074;28;20095;-52
2022/03/12 12:06:21;;;;;;;6.22;3.92;;;12.40;63.40;;;;;;5054369;28;20049;-49
2022/03/12 12:08:51;;;;;;;7.00;4.10;;;12.20;64.20;;;;;;5054298;28;20132;-49
2022/03/12 12:11:18;;;;;;;7.07;4.07;;;12.20;64.20;;;;;;5054234;28;20510;-49
2022/03/12 12:13:46;;;;;;;7.05;5.25;;;12.30;65.50;;;;;;5054344;28;20052;-52
2022/03/12 12:16:16;;;;;;;8.27;5.43;;;12.40;65.30;;;;;;5054010;28;20041;-51
2022/03/12 12:18:44;;;;;;;6.82;4.57;;;12.40;65.20;;;;;;5053512;28;20090;-54
2022/03/12 12:21:18;;;;;;;6.68;3.97;;;12.20;64.90;;;;;;5053907;28;20396;-52
2022/03/12 12:23:47;;;;;;;6.13;3.63;;;12.20;65.40;;;;;;5053141;28;20095;-48
2022/03/12 12:26:15;;;;;;;7.53;3.30;;;12.30;64.80;;;;;;5052638;28;20498;-52
2022/03/12 12:28:51;;;;;;;5.07;3.72;;;12.10;63.90;;;;;;5053784;28;20045;-50
2022/03/12 12:31:26;;;;;;;5.05;3.45;;;11.90;63.70;;;;;;5052804;28;20047;-50
2022/03/12 12:34:00;;;;;;;5.05;3.20;;;11.90;62.70;;;;;;5053928;28;20221;-51
2022/03/12 12:36:27;;;;;;;6.22;3.28;;;12.00;63.50;;;;;;5053667;28;20128;-51
2022/03/12 12:39:10;;;;;;;4.30;3.28;;;11.90;62.50;;;;;;5052525;28;20039;-49
2022/03/12 12:41:53;;;;;;;6.20;4.25;;;11.80;62.40;;;;;;5053830;28;20033;-48
2022/03/12 12:44:39;;;;;;;5.70;2.97;;;11.80;62.30;;;;;;5053863;28;20384;-51
2022/03/12 12:47:17;;;;;;;5.95;2.90;;;11.70;63.60;;;;;;5053585;28;20060;-49
2022/03/12 12:49:53;;;;;;;6.28;4.07;;;11.60;63.50;;;;;;5053602;28;20045;-51
2022/03/12 12:52:22;;;;;;;5.90;3.40;;;11.60;64.10;;;;;;5053332;28;20165;-49
2022/03/12 12:54:57;;;;;;;4.38;2.83;;;11.50;63.70;;;;;;5053360;28;20283;-49
2022/03/12 12:57:41;;;;;;;5.85;2.97;;;11.40;64.10;;;;;;5053444;28;20049;-53
2022/03/12 13:00:39;;;;;;;5.82;2.80;;;11.20;63.30;;;;;;5053674;28;20048;-50
2022/03/12 13:03:15;;;;;;;4.72;2.67;;;11.30;61.80;;;;;;5053705;28;20036;-49
2022/03/12 13:05:53;;;;;;;5.40;2.55;;;11.30;61.60;;;;;;5053400;28;20514;-51